sensor_id;sensor_type;location;lat;lon;timestamp;P1;durP1;ratioP1;P2;durP2;ratioP2
66012;SDS011;52783;50.502;8.190;2022-12-18T00:01:05;19.20;;;9.95;;
66012;SDS011;52783;50.502;8.190;2022-12-18T00:03:38;22.02;;;11.00;;
66012;SDS011;52783;50.502;8.190;2022-12-18T00:06:04;24.50;;;10.68;;
66012;SDS011;52783;50.502;8.190;2022-12-18T00:08:29;27.42;;;12.15;;
66012;SDS011;52783;50.502;8.190;2022-12-18T00:10:55;22.02;;;11.35;;
66012;SDS011;52783;50.502;8.190;2022-12-18T00:13:27;28.33;;;10.50;;
66012;SDS011;52783;50.502;8.190;2022-12-18T00:15:53;17.83;;;9.10;;
66012;SDS011;52783;50.502;8.190;2022-12-18T00:18:18;13.55;;;8.50;;
66012;SDS011;52783;50.502;8.190;2022-12-18T00:20:44;15.90;;;7.15;;
66012;SDS011;52783;50.502;8.190;2022-12-18T00:23:09;23.65;;;11.50;;
66012;SDS011;52783;50.502;8.190;2022-12-18T00:25:35;20.17;;;9.80;;
66012;SDS011;52783;50.502;8.190;2022-12-18T00:28:02;21.38;;;10.55;;
66012;SDS011;52783;50.502;8.190;2022-12-18T00:30:28;24.27;;;11.13;;
66012;SDS011;52783;50.502;8.190;2022-12-18T00:32:54;30.70;;;12.23;;
66012;SDS011;52783;50.502;8.190;2022-12-18T00:35:20;22.88;;;10.15;;
66012;SDS011;52783;50.502;8.190;2022-12-18T00:37:46;30.85;;;14.68;;
66012;SDS011;52783;50.502;8.190;2022-12-18T00:40:12;33.25;;;14.15;;
66012;SDS011;52783;50.502;8.190;2022-12-18T00:42:37;33.25;;;13.38;;
66012;SDS011;52783;50.502;8.190;2022-12-18T00:45:22;28.25;;;12.73;;
66012;SDS011;52783;50.502;8.190;2022-12-18T00:47:55;24.20;;;11.00;;
66012;SDS011;52783;50.502;8.190;2022-12-18T00:50:22;17.63;;;8.32;;
66012;SDS011;52783;50.502;8.190;2022-12-18T00:52:48;16.42;;;6.68;;
66012;SDS011;52783;50.502;8.190;2022-12-18T00:55:14;29.80;;;13.30;;
66012;SDS011;52783;50.502;8.190;2022-12-18T00:57:40;29.80;;;12.77;;
66012;SDS011;52783;50.502;8.190;2022-12-18T01:00:06;23.92;;;11.18;;
66012;SDS011;52783;50.502;8.190;2022-12-18T01:02:33;20.00;;;8.35;;
66012;SDS011;52783;50.502;8.190;2022-12-18T01:04:59;15.88;;;8.18;;
66012;SDS011;52783;50.502;8.190;2022-12-18T01:07:25;12.18;;;5.97;;
66012;SDS011;52783;50.502;8.190;2022-12-18T01:09:51;27.15;;;11.70;;
66012;SDS011;52783;50.502;8.190;2022-12-18T01:12:17;28.25;;;14.02;;
66012;SDS011;52783;50.502;8.190;2022-12-18T01:14:42;30.13;;;13.40;;
66012;SDS011;52783;50.502;8.190;2022-12-18T01:17:08;28.58;;;11.45;;
66012;SDS011;52783;50.502;8.190;2022-12-18T01:19:34;28.73;;;10.90;;
66012;SDS011;52783;50.502;8.190;2022-12-18T01:21:59;15.60;;;7.97;;
66012;SDS011;52783;50.502;8.190;2022-12-18T01:24:25;28.65;;;13.20;;
66012;SDS011;52783;50.502;8.190;2022-12-18T01:26:50;28.23;;;11.73;;
66012;SDS011;52783;50.502;8.190;2022-12-18T01:29:16;25.88;;;12.05;;
66012;SDS011;52783;50.502;8.190;2022-12-18T01:31:41;31.08;;;11.40;;
66012;SDS011;52783;50.502;8.190;2022-12-18T01:34:08;17.58;;;7.97;;
66012;SDS011;52783;50.502;8.190;2022-12-18T01:36:35;10.80;;;6.90;;
66012;SDS011;52783;50.502;8.190;2022-12-18T01:39:05;17.33;;;7.55;;
66012;SDS011;52783;50.502;8.190;2022-12-18T01:41:34;17.02;;;8.60;;
66012;SDS011;52783;50.502;8.190;2022-12-18T01:47:23;17.52;;;7.80;;
66012;SDS011;52783;50.502;8.190;2022-12-18T01:49:51;24.83;;;10.50;;
66012;SDS011;52783;50.502;8.190;2022-12-18T01:52:17;19.00;;;8.93;;
66012;SDS011;52783;50.502;8.190;2022-12-18T01:54:45;31.15;;;12.75;;
66012;SDS011;52783;50.502;8.190;2022-12-18T01:57:11;19.27;;;10.05;;
66012;SDS011;52783;50.502;8.190;2022-12-18T01:59:37;9.88;;;6.30;;
66012;SDS011;52783;50.502;8.190;2022-12-18T02:02:05;22.27;;;9.00;;
66012;SDS011;52783;50.502;8.190;2022-12-18T02:04:32;23.08;;;11.80;;
66012;SDS011;52783;50.502;8.190;2022-12-18T02:07:09;19.58;;;10.05;;
66012;SDS011;52783;50.502;8.190;2022-12-18T02:09:45;25.83;;;11.02;;
66012;SDS011;52783;50.502;8.190;2022-12-18T02:12:17;30.50;;;11.80;;
66012;SDS011;52783;50.502;8.190;2022-12-18T02:14:53;24.77;;;10.93;;
66012;SDS011;52783;50.502;8.190;2022-12-18T02:17:54;11.00;;;5.57;;
66012;SDS011;52783;50.502;8.190;2022-12-18T02:20:31;25.50;;;10.35;;
66012;SDS011;52783;50.502;8.190;2022-12-18T02:31:43;18.63;;;10.25;;
66012;SDS011;52783;50.502;8.190;2022-12-18T02:34:14;19.23;;;9.40;;
66012;SDS011;52783;50.502;8.190;2022-12-18T02:36:42;26.38;;;11.18;;
66012;SDS011;52783;50.502;8.190;2022-12-18T02:39:10;18.65;;;7.85;;
66012;SDS011;52783;50.502;8.190;2022-12-18T02:41:38;21.27;;;10.15;;
66012;SDS011;52783;50.502;8.190;2022-12-18T02:44:09;26.55;;;10.70;;
66012;SDS011;52783;50.502;8.190;2022-12-18T02:46:42;16.00;;;7.70;;
66012;SDS011;52783;50.502;8.190;2022-12-18T03:01:06;24.27;;;8.02;;
66012;SDS011;52783;50.502;8.190;2022-12-18T03:03:39;18.15;;;8.13;;
66012;SDS011;52783;50.502;8.190;2022-12-18T03:06:21;18.55;;;7.20;;
66012;SDS011;52783;50.502;8.190;2022-12-18T03:08:53;16.58;;;7.72;;
66012;SDS011;52783;50.502;8.190;2022-12-18T03:11:23;12.48;;;7.05;;
66012;SDS011;52783;50.502;8.190;2022-12-18T03:14:10;10.05;;;6.38;;
66012;SDS011;52783;50.502;8.190;2022-12-18T03:16:38;17.83;;;10.10;;
66012;SDS011;52783;50.502;8.190;2022-12-18T03:19:14;9.13;;;5.47;;
66012;SDS011;52783;50.502;8.190;2022-12-18T03:21:45;20.23;;;10.18;;
66012;SDS011;52783;50.502;8.190;2022-12-18T03:24:14;16.45;;;9.30;;
66012;SDS011;52783;50.502;8.190;2022-12-18T03:26:42;6.90;;;4.90;;
66012;SDS011;52783;50.502;8.190;2022-12-18T03:29:19;12.63;;;6.88;;
66012;SDS011;52783;50.502;8.190;2022-12-18T03:31:59;8.90;;;5.13;;
66012;SDS011;52783;50.502;8.190;2022-12-18T03:34:33;12.45;;;6.22;;
66012;SDS011;52783;50.502;8.190;2022-12-18T03:37:02;17.20;;;9.48;;
66012;SDS011;52783;50.502;8.190;2022-12-18T03:39:28;20.50;;;8.02;;
66012;SDS011;52783;50.502;8.190;2022-12-18T03:42:00;27.38;;;10.13;;
66012;SDS011;52783;50.502;8.190;2022-12-18T03:52:38;8.23;;;4.50;;
66012;SDS011;52783;50.502;8.190;2022-12-18T03:55:14;13.88;;;6.63;;
66012;SDS011;52783;50.502;8.190;2022-12-18T03:57:41;12.43;;;6.95;;
66012;SDS011;52783;50.502;8.190;2022-12-18T04:00:10;25.27;;;10.52;;
66012;SDS011;52783;50.502;8.190;2022-12-18T04:02:38;22.13;;;11.77;;
66012;SDS011;52783;50.502;8.190;2022-12-18T04:05:08;16.95;;;9.02;;
66012;SDS011;52783;50.502;8.190;2022-12-18T04:07:35;12.90;;;8.13;;
66012;SDS011;52783;50.502;8.190;2022-12-18T04:10:03;12.40;;;6.55;;
66012;SDS011;52783;50.502;8.190;2022-12-18T04:12:31;17.85;;;8.43;;
66012;SDS011;52783;50.502;8.190;2022-12-18T04:14:57;21.88;;;10.10;;
66012;SDS011;52783;50.502;8.190;2022-12-18T04:17:23;20.45;;;10.02;;
66012;SDS011;52783;50.502;8.190;2022-12-18T04:19:48;24.42;;;10.23;;
66012;SDS011;52783;50.502;8.190;2022-12-18T04:22:14;14.65;;;7.20;;
66012;SDS011;52783;50.502;8.190;2022-12-18T04:24:40;21.08;;;11.15;;
66012;SDS011;52783;50.502;8.190;2022-12-18T04:27:05;21.55;;;11.15;;
66012;SDS011;52783;50.502;8.190;2022-12-18T04:29:32;19.73;;;10.07;;
66012;SDS011;52783;50.502;8.190;2022-12-18T04:31:57;24.77;;;13.45;;
66012;SDS011;52783;50.502;8.190;2022-12-18T04:34:23;26.48;;;10.60;;
66012;SDS011;52783;50.502;8.190;2022-12-18T04:36:49;18.42;;;8.82;;
66012;SDS011;52783;50.502;8.190;2022-12-18T04:39:14;15.15;;;6.22;;
66012;SDS011;52783;50.502;8.190;2022-12-18T04:41:40;14.68;;;8.35;;
66012;SDS011;52783;50.502;8.190;2022-12-18T04:44:06;15.40;;;8.02;;
66012;SDS011;52783;50.502;8.190;2022-12-18T04:46:31;20.40;;;10.60;;
66012;SDS011;52783;50.502;8.190;2022-12-18T04:48:57;19.30;;;11.02;;
66012;SDS011;52783;50.502;8.190;2022-12-18T04:51:23;15.68;;;7.75;;
66012;SDS011;52783;50.502;8.190;2022-12-18T04:53:49;22.20;;;11.68;;
66012;SDS011;52783;50.502;8.190;2022-12-18T04:56:14;22.15;;;10.77;;
66012;SDS011;52783;50.502;8.190;2022-12-18T04:58:41;17.70;;;10.65;;
66012;SDS011;52783;50.502;8.190;2022-12-18T05:01:08;25.67;;;11.65;;
66012;SDS011;52783;50.502;8.190;2022-12-18T05:03:35;23.38;;;11.35;;
66012;SDS011;52783;50.502;8.190;2022-12-18T05:06:01;19.08;;;7.88;;
66012;SDS011;52783;50.502;8.190;2022-12-18T05:08:27;23.08;;;9.05;;
66012;SDS011;52783;50.502;8.190;2022-12-18T05:10:59;21.92;;;10.32;;
66012;SDS011;52783;50.502;8.190;2022-12-18T05:13:25;25.95;;;10.57;;
66012;SDS011;52783;50.502;8.190;2022-12-18T05:15:51;8.98;;;6.00;;
66012;SDS011;52783;50.502;8.190;2022-12-18T05:18:17;25.42;;;10.30;;
66012;SDS011;52783;50.502;8.190;2022-12-18T05:20:43;22.55;;;11.38;;
66012;SDS011;52783;50.502;8.190;2022-12-18T05:23:08;26.35;;;11.88;;
66012;SDS011;52783;50.502;8.190;2022-12-18T05:25:34;29.25;;;11.15;;
66012;SDS011;52783;50.502;8.190;2022-12-18T05:28:00;22.35;;;11.15;;
66012;SDS011;52783;50.502;8.190;2022-12-18T05:30:25;25.70;;;12.23;;
66012;SDS011;52783;50.502;8.190;2022-12-18T05:32:51;20.88;;;10.18;;
66012;SDS011;52783;50.502;8.190;2022-12-18T05:35:16;21.40;;;8.95;;
66012;SDS011;52783;50.502;8.190;2022-12-18T05:37:42;23.77;;;10.27;;
66012;SDS011;52783;50.502;8.190;2022-12-18T05:40:08;25.25;;;10.90;;
66012;SDS011;52783;50.502;8.190;2022-12-18T05:42:34;15.88;;;8.43;;
66012;SDS011;52783;50.502;8.190;2022-12-18T05:45:00;21.17;;;11.07;;
66012;SDS011;52783;50.502;8.190;2022-12-18T05:47:26;34.45;;;15.10;;
66012;SDS011;52783;50.502;8.190;2022-12-18T05:49:52;18.98;;;10.77;;
66012;SDS011;52783;50.502;8.190;2022-12-18T05:52:18;30.88;;;11.23;;
66012;SDS011;52783;50.502;8.190;2022-12-18T05:54:43;24.25;;;11.50;;
66012;SDS011;52783;50.502;8.190;2022-12-18T05:57:09;26.85;;;12.38;;
66012;SDS011;52783;50.502;8.190;2022-12-18T05:59:35;9.73;;;5.90;;
66012;SDS011;52783;50.502;8.190;2022-12-18T06:02:00;20.00;;;10.82;;
66012;SDS011;52783;50.502;8.190;2022-12-18T06:04:26;26.02;;;12.48;;
66012;SDS011;52783;50.502;8.190;2022-12-18T06:06:53;16.35;;;8.48;;
66012;SDS011;52783;50.502;8.190;2022-12-18T06:09:19;17.67;;;8.10;;
66012;SDS011;52783;50.502;8.190;2022-12-18T06:11:44;14.05;;;6.65;;
66012;SDS011;52783;50.502;8.190;2022-12-18T06:14:10;17.27;;;9.20;;
66012;SDS011;52783;50.502;8.190;2022-12-18T06:16:36;16.05;;;7.55;;
66012;SDS011;52783;50.502;8.190;2022-12-18T06:19:02;25.42;;;11.15;;
66012;SDS011;52783;50.502;8.190;2022-12-18T06:21:29;14.48;;;8.15;;
66012;SDS011;52783;50.502;8.190;2022-12-18T06:23:56;15.27;;;9.35;;
66012;SDS011;52783;50.502;8.190;2022-12-18T06:26:22;15.27;;;7.15;;
66012;SDS011;52783;50.502;8.190;2022-12-18T06:28:48;14.80;;;7.00;;
66012;SDS011;52783;50.502;8.190;2022-12-18T06:31:14;13.25;;;7.43;;
66012;SDS011;52783;50.502;8.190;2022-12-18T06:33:40;20.40;;;10.35;;
66012;SDS011;52783;50.502;8.190;2022-12-18T06:36:06;15.05;;;6.97;;
66012;SDS011;52783;50.502;8.190;2022-12-18T06:38:37;14.23;;;8.05;;
66012;SDS011;52783;50.502;8.190;2022-12-18T06:41:10;15.63;;;8.45;;
66012;SDS011;52783;50.502;8.190;2022-12-18T06:43:37;19.40;;;10.02;;
66012;SDS011;52783;50.502;8.190;2022-12-18T06:46:03;16.05;;;7.93;;
66012;SDS011;52783;50.502;8.190;2022-12-18T06:48:29;13.55;;;7.75;;
66012;SDS011;52783;50.502;8.190;2022-12-18T06:50:56;13.27;;;6.78;;
66012;SDS011;52783;50.502;8.190;2022-12-18T06:53:21;24.30;;;8.50;;
66012;SDS011;52783;50.502;8.190;2022-12-18T06:55:47;14.52;;;8.65;;
66012;SDS011;52783;50.502;8.190;2022-12-18T06:58:13;11.23;;;6.03;;
66012;SDS011;52783;50.502;8.190;2022-12-18T07:00:38;21.08;;;10.48;;
66012;SDS011;52783;50.502;8.190;2022-12-18T07:03:04;21.35;;;9.77;;
66012;SDS011;52783;50.502;8.190;2022-12-18T07:05:30;20.10;;;10.10;;
66012;SDS011;52783;50.502;8.190;2022-12-18T07:07:55;20.88;;;10.07;;
66012;SDS011;52783;50.502;8.190;2022-12-18T07:10:21;15.63;;;9.45;;
66012;SDS011;52783;50.502;8.190;2022-12-18T07:12:46;9.50;;;6.45;;
66012;SDS011;52783;50.502;8.190;2022-12-18T07:15:12;14.93;;;8.60;;
66012;SDS011;52783;50.502;8.190;2022-12-18T07:17:37;9.10;;;5.30;;
66012;SDS011;52783;50.502;8.190;2022-12-18T07:20:03;23.60;;;9.82;;
66012;SDS011;52783;50.502;8.190;2022-12-18T07:22:29;14.93;;;7.63;;
66012;SDS011;52783;50.502;8.190;2022-12-18T07:24:55;21.17;;;10.23;;
66012;SDS011;52783;50.502;8.190;2022-12-18T07:27:21;16.08;;;9.13;;
66012;SDS011;52783;50.502;8.190;2022-12-18T07:29:47;24.88;;;9.52;;
66012;SDS011;52783;50.502;8.190;2022-12-18T07:32:13;30.95;;;13.48;;
66012;SDS011;52783;50.502;8.190;2022-12-18T07:34:38;21.38;;;10.18;;
66012;SDS011;52783;50.502;8.190;2022-12-18T07:37:04;33.70;;;12.77;;
66012;SDS011;52783;50.502;8.190;2022-12-18T07:39:30;24.00;;;12.60;;
66012;SDS011;52783;50.502;8.190;2022-12-18T07:41:55;23.52;;;10.50;;
66012;SDS011;52783;50.502;8.190;2022-12-18T07:44:39;23.30;;;11.32;;
66012;SDS011;52783;50.502;8.190;2022-12-18T07:47:05;32.15;;;12.25;;
66012;SDS011;52783;50.502;8.190;2022-12-18T07:49:30;22.52;;;9.80;;
66012;SDS011;52783;50.502;8.190;2022-12-18T07:51:56;27.25;;;12.68;;
66012;SDS011;52783;50.502;8.190;2022-12-18T07:54:23;22.15;;;9.90;;
66012;SDS011;52783;50.502;8.190;2022-12-18T07:56:49;21.88;;;11.10;;
66012;SDS011;52783;50.502;8.190;2022-12-18T07:59:15;25.58;;;12.10;;
66012;SDS011;52783;50.502;8.190;2022-12-18T08:01:41;21.52;;;9.77;;
66012;SDS011;52783;50.502;8.190;2022-12-18T08:04:06;20.10;;;8.68;;
66012;SDS011;52783;50.502;8.190;2022-12-18T08:06:32;20.75;;;11.43;;
66012;SDS011;52783;50.502;8.190;2022-12-18T08:08:57;19.30;;;9.70;;
66012;SDS011;52783;50.502;8.190;2022-12-18T08:11:24;24.83;;;11.25;;
66012;SDS011;52783;50.502;8.190;2022-12-18T08:13:50;25.33;;;10.90;;
66012;SDS011;52783;50.502;8.190;2022-12-18T08:16:16;22.45;;;10.57;;
66012;SDS011;52783;50.502;8.190;2022-12-18T08:18:42;28.05;;;10.35;;
66012;SDS011;52783;50.502;8.190;2022-12-18T08:23:38;21.25;;;8.25;;
66012;SDS011;52783;50.502;8.190;2022-12-18T08:26:04;20.38;;;10.27;;
66012;SDS011;52783;50.502;8.190;2022-12-18T08:28:30;20.90;;;11.68;;
66012;SDS011;52783;50.502;8.190;2022-12-18T08:30:55;22.50;;;12.95;;
66012;SDS011;52783;50.502;8.190;2022-12-18T08:33:21;21.67;;;10.13;;
66012;SDS011;52783;50.502;8.190;2022-12-18T08:35:46;25.15;;;9.48;;
66012;SDS011;52783;50.502;8.190;2022-12-18T08:38:12;15.60;;;8.52;;
66012;SDS011;52783;50.502;8.190;2022-12-18T08:40:38;20.83;;;10.73;;
66012;SDS011;52783;50.502;8.190;2022-12-18T08:43:03;19.55;;;10.23;;
66012;SDS011;52783;50.502;8.190;2022-12-18T08:46:01;20.30;;;9.57;;
66012;SDS011;52783;50.502;8.190;2022-12-18T08:48:26;22.42;;;10.88;;
66012;SDS011;52783;50.502;8.190;2022-12-18T08:50:55;18.90;;;9.05;;
66012;SDS011;52783;50.502;8.190;2022-12-18T08:53:22;27.15;;;11.55;;
66012;SDS011;52783;50.502;8.190;2022-12-18T08:55:47;24.63;;;10.23;;
66012;SDS011;52783;50.502;8.190;2022-12-18T08:58:13;13.55;;;7.07;;
66012;SDS011;52783;50.502;8.190;2022-12-18T09:00:38;24.42;;;10.38;;
66012;SDS011;52783;50.502;8.190;2022-12-18T09:03:04;24.63;;;10.43;;
66012;SDS011;52783;50.502;8.190;2022-12-18T09:05:29;23.52;;;11.18;;
66012;SDS011;52783;50.502;8.190;2022-12-18T09:07:55;21.58;;;11.65;;
66012;SDS011;52783;50.502;8.190;2022-12-18T09:10:21;22.90;;;11.50;;
66012;SDS011;52783;50.502;8.190;2022-12-18T09:12:47;19.65;;;9.48;;
66012;SDS011;52783;50.502;8.190;2022-12-18T09:15:12;29.52;;;12.80;;
66012;SDS011;52783;50.502;8.190;2022-12-18T09:17:38;19.83;;;9.50;;
66012;SDS011;52783;50.502;8.190;2022-12-18T09:20:03;17.10;;;9.68;;
66012;SDS011;52783;50.502;8.190;2022-12-18T09:22:29;24.73;;;12.25;;
66012;SDS011;52783;50.502;8.190;2022-12-18T09:24:55;24.67;;;11.38;;
66012;SDS011;52783;50.502;8.190;2022-12-18T09:27:21;19.75;;;11.05;;
66012;SDS011;52783;50.502;8.190;2022-12-18T09:29:46;20.90;;;10.82;;
66012;SDS011;52783;50.502;8.190;2022-12-18T09:32:12;26.80;;;11.73;;
66012;SDS011;52783;50.502;8.190;2022-12-18T09:34:38;16.48;;;8.38;;
66012;SDS011;52783;50.502;8.190;2022-12-18T09:37:03;21.73;;;10.35;;
66012;SDS011;52783;50.502;8.190;2022-12-18T09:39:29;22.60;;;10.88;;
66012;SDS011;52783;50.502;8.190;2022-12-18T09:41:55;22.83;;;11.98;;
66012;SDS011;52783;50.502;8.190;2022-12-18T09:44:24;18.70;;;9.90;;
66012;SDS011;52783;50.502;8.190;2022-12-18T09:46:56;16.95;;;8.60;;
66012;SDS011;52783;50.502;8.190;2022-12-18T09:52:19;23.52;;;9.70;;
66012;SDS011;52783;50.502;8.190;2022-12-18T09:55:09;12.98;;;7.45;;
66012;SDS011;52783;50.502;8.190;2022-12-18T09:57:49;23.55;;;10.50;;
66012;SDS011;52783;50.502;8.190;2022-12-18T10:00:20;18.63;;;10.10;;
66012;SDS011;52783;50.502;8.190;2022-12-18T10:02:47;16.90;;;8.43;;
66012;SDS011;52783;50.502;8.190;2022-12-18T10:05:17;18.98;;;9.85;;
66012;SDS011;52783;50.502;8.190;2022-12-18T10:07:53;19.10;;;8.75;;
66012;SDS011;52783;50.502;8.190;2022-12-18T10:10:31;21.65;;;9.95;;
66012;SDS011;52783;50.502;8.190;2022-12-18T10:16:03;18.77;;;9.05;;
66012;SDS011;52783;50.502;8.190;2022-12-18T10:18:46;23.55;;;11.07;;
66012;SDS011;52783;50.502;8.190;2022-12-18T10:21:20;19.23;;;10.70;;
66012;SDS011;52783;50.502;8.190;2022-12-18T10:24:12;24.67;;;13.80;;
66012;SDS011;52783;50.502;8.190;2022-12-18T10:26:59;17.23;;;7.82;;
66012;SDS011;52783;50.502;8.190;2022-12-18T10:29:46;14.32;;;7.68;;
66012;SDS011;52783;50.502;8.190;2022-12-18T10:32:18;23.23;;;10.95;;
66012;SDS011;52783;50.502;8.190;2022-12-18T10:34:50;23.33;;;11.75;;
66012;SDS011;52783;50.502;8.190;2022-12-18T10:37:17;21.92;;;11.23;;
66012;SDS011;52783;50.502;8.190;2022-12-18T10:39:45;17.75;;;9.85;;
66012;SDS011;52783;50.502;8.190;2022-12-18T10:42:18;20.02;;;10.95;;
66012;SDS011;52783;50.502;8.190;2022-12-18T10:44:44;19.40;;;9.07;;
66012;SDS011;52783;50.502;8.190;2022-12-18T10:47:12;21.83;;;10.80;;
66012;SDS011;52783;50.502;8.190;2022-12-18T10:49:47;10.82;;;5.57;;
66012;SDS011;52783;50.502;8.190;2022-12-18T10:52:16;22.92;;;7.70;;
66012;SDS011;52783;50.502;8.190;2022-12-18T10:54:51;20.85;;;11.00;;
66012;SDS011;52783;50.502;8.190;2022-12-18T10:57:36;27.70;;;9.88;;
66012;SDS011;52783;50.502;8.190;2022-12-18T11:02:53;16.77;;;9.57;;
66012;SDS011;52783;50.502;8.190;2022-12-18T11:07:52;20.15;;;11.73;;
66012;SDS011;52783;50.502;8.190;2022-12-18T11:10:20;22.05;;;12.65;;
66012;SDS011;52783;50.502;8.190;2022-12-18T11:12:47;19.00;;;10.63;;
66012;SDS011;52783;50.502;8.190;2022-12-18T11:15:15;27.45;;;13.13;;
66012;SDS011;52783;50.502;8.190;2022-12-18T11:17:44;19.13;;;10.73;;
66012;SDS011;52783;50.502;8.190;2022-12-18T11:20:26;12.00;;;7.35;;
66012;SDS011;52783;50.502;8.190;2022-12-18T11:23:01;22.00;;;10.93;;
66012;SDS011;52783;50.502;8.190;2022-12-18T11:25:29;25.55;;;11.90;;
66012;SDS011;52783;50.502;8.190;2022-12-18T11:28:01;26.00;;;13.52;;
66012;SDS011;52783;50.502;8.190;2022-12-18T11:30:33;27.85;;;12.32;;
66012;SDS011;52783;50.502;8.190;2022-12-18T11:33:11;19.88;;;10.13;;
66012;SDS011;52783;50.502;8.190;2022-12-18T11:40:55;19.95;;;10.55;;
66012;SDS011;52783;50.502;8.190;2022-12-18T11:45:54;25.30;;;13.38;;
66012;SDS011;52783;50.502;8.190;2022-12-18T11:48:36;29.17;;;13.55;;
66012;SDS011;52783;50.502;8.190;2022-12-18T11:51:11;26.85;;;12.73;;
66012;SDS011;52783;50.502;8.190;2022-12-18T11:53:44;30.65;;;15.98;;
66012;SDS011;52783;50.502;8.190;2022-12-18T11:58:42;58.13;;;27.38;;
66012;SDS011;52783;50.502;8.190;2022-12-18T12:06:54;27.40;;;13.93;;
66012;SDS011;52783;50.502;8.190;2022-12-18T12:15:44;26.27;;;11.48;;
66012;SDS011;52783;50.502;8.190;2022-12-18T12:18:31;32.67;;;15.75;;
66012;SDS011;52783;50.502;8.190;2022-12-18T12:26:55;18.27;;;9.25;;
66012;SDS011;52783;50.502;8.190;2022-12-18T12:37:46;28.95;;;12.20;;
66012;SDS011;52783;50.502;8.190;2022-12-18T12:40:28;31.65;;;16.40;;
66012;SDS011;52783;50.502;8.190;2022-12-18T12:53:48;22.48;;;12.77;;
66012;SDS011;52783;50.502;8.190;2022-12-18T12:56:16;21.60;;;11.50;;
66012;SDS011;52783;50.502;8.190;2022-12-18T13:04:12;28.25;;;13.88;;
66012;SDS011;52783;50.502;8.190;2022-12-18T13:07:25;29.45;;;13.57;;
66012;SDS011;52783;50.502;8.190;2022-12-18T13:18:02;36.85;;;17.95;;
66012;SDS011;52783;50.502;8.190;2022-12-18T13:20:50;30.60;;;14.48;;
66012;SDS011;52783;50.502;8.190;2022-12-18T13:23:36;36.22;;;17.70;;
66012;SDS011;52783;50.502;8.190;2022-12-18T13:31:15;31.23;;;13.60;;
66012;SDS011;52783;50.502;8.190;2022-12-18T13:34:12;36.13;;;18.50;;
66012;SDS011;52783;50.502;8.190;2022-12-18T13:36:47;30.23;;;15.23;;
66012;SDS011;52783;50.502;8.190;2022-12-18T13:41:44;31.63;;;15.77;;
66012;SDS011;52783;50.502;8.190;2022-12-18T13:47:00;41.28;;;20.35;;
66012;SDS011;52783;50.502;8.190;2022-12-18T13:49:41;26.40;;;14.40;;
66012;SDS011;52783;50.502;8.190;2022-12-18T13:52:15;41.17;;;19.60;;
66012;SDS011;52783;50.502;8.190;2022-12-18T13:54:45;30.90;;;17.48;;
66012;SDS011;52783;50.502;8.190;2022-12-18T13:59:58;40.13;;;19.48;;
66012;SDS011;52783;50.502;8.190;2022-12-18T14:02:49;33.75;;;14.90;;
66012;SDS011;52783;50.502;8.190;2022-12-18T14:05:26;38.75;;;20.73;;
66012;SDS011;52783;50.502;8.190;2022-12-18T14:08:04;49.05;;;21.20;;
66012;SDS011;52783;50.502;8.190;2022-12-18T14:10:33;44.85;;;22.35;;
66012;SDS011;52783;50.502;8.190;2022-12-18T14:13:03;42.20;;;20.35;;
66012;SDS011;52783;50.502;8.190;2022-12-18T14:18:21;37.35;;;18.83;;
66012;SDS011;52783;50.502;8.190;2022-12-18T14:20:52;40.97;;;19.45;;
66012;SDS011;52783;50.502;8.190;2022-12-18T14:23:28;37.53;;;18.63;;
66012;SDS011;52783;50.502;8.190;2022-12-18T14:25:54;37.53;;;18.25;;
66012;SDS011;52783;50.502;8.190;2022-12-18T14:28:19;44.28;;;19.58;;
66012;SDS011;52783;50.502;8.190;2022-12-18T14:30:46;27.05;;;13.52;;
66012;SDS011;52783;50.502;8.190;2022-12-18T14:33:13;40.83;;;18.02;;
66012;SDS011;52783;50.502;8.190;2022-12-18T14:35:54;42.22;;;18.75;;
66012;SDS011;52783;50.502;8.190;2022-12-18T14:38:31;34.10;;;17.23;;
66012;SDS011;52783;50.502;8.190;2022-12-18T14:41:05;43.45;;;20.88;;
66012;SDS011;52783;50.502;8.190;2022-12-18T14:43:36;42.92;;;17.95;;
66012;SDS011;52783;50.502;8.190;2022-12-18T14:46:03;35.15;;;15.57;;
66012;SDS011;52783;50.502;8.190;2022-12-18T14:48:33;44.92;;;19.75;;
66012;SDS011;52783;50.502;8.190;2022-12-18T14:56:02;40.42;;;19.98;;
66012;SDS011;52783;50.502;8.190;2022-12-18T14:58:35;42.80;;;17.15;;
66012;SDS011;52783;50.502;8.190;2022-12-18T15:01:00;33.05;;;15.90;;
66012;SDS011;52783;50.502;8.190;2022-12-18T15:03:26;44.05;;;19.30;;
66012;SDS011;52783;50.502;8.190;2022-12-18T15:05:51;44.10;;;19.27;;
66012;SDS011;52783;50.502;8.190;2022-12-18T15:08:31;47.90;;;21.25;;
66012;SDS011;52783;50.502;8.190;2022-12-18T15:11:00;47.45;;;19.48;;
66012;SDS011;52783;50.502;8.190;2022-12-18T15:13:26;37.65;;;16.73;;
66012;SDS011;52783;50.502;8.190;2022-12-18T15:15:52;48.28;;;18.83;;
66012;SDS011;52783;50.502;8.190;2022-12-18T15:18:20;50.80;;;19.67;;
66012;SDS011;52783;50.502;8.190;2022-12-18T15:23:21;39.15;;;17.10;;
66012;SDS011;52783;50.502;8.190;2022-12-18T15:26:01;44.70;;;16.08;;
66012;SDS011;52783;50.502;8.190;2022-12-18T15:28:39;36.40;;;17.98;;
66012;SDS011;52783;50.502;8.190;2022-12-18T15:33:37;48.97;;;19.08;;
66012;SDS011;52783;50.502;8.190;2022-12-18T15:36:08;40.20;;;17.05;;
66012;SDS011;52783;50.502;8.190;2022-12-18T15:38:35;47.35;;;18.95;;
66012;SDS011;52783;50.502;8.190;2022-12-18T15:41:01;63.28;;;25.10;;
66012;SDS011;52783;50.502;8.190;2022-12-18T15:43:27;62.45;;;23.02;;
66012;SDS011;52783;50.502;8.190;2022-12-18T15:45:59;51.03;;;18.60;;
66012;SDS011;52783;50.502;8.190;2022-12-18T15:48:30;45.30;;;19.17;;
66012;SDS011;52783;50.502;8.190;2022-12-18T15:51:04;49.42;;;22.20;;
66012;SDS011;52783;50.502;8.190;2022-12-18T15:53:36;49.42;;;20.83;;
66012;SDS011;52783;50.502;8.190;2022-12-18T15:56:01;41.42;;;16.05;;
66012;SDS011;52783;50.502;8.190;2022-12-18T15:58:45;34.65;;;16.20;;
66012;SDS011;52783;50.502;8.190;2022-12-18T16:01:11;60.08;;;23.80;;
66012;SDS011;52783;50.502;8.190;2022-12-18T16:03:50;47.00;;;19.38;;
66012;SDS011;52783;50.502;8.190;2022-12-18T16:06:16;45.30;;;20.15;;
66012;SDS011;52783;50.502;8.190;2022-12-18T16:08:42;48.28;;;18.83;;
66012;SDS011;52783;50.502;8.190;2022-12-18T16:11:29;41.55;;;17.30;;
66012;SDS011;52783;50.502;8.190;2022-12-18T16:14:20;44.75;;;19.00;;
66012;SDS011;52783;50.502;8.190;2022-12-18T16:16:55;29.02;;;14.10;;
66012;SDS011;52783;50.502;8.190;2022-12-18T16:19:23;50.85;;;19.27;;
66012;SDS011;52783;50.502;8.190;2022-12-18T16:21:50;43.28;;;20.50;;
66012;SDS011;52783;50.502;8.190;2022-12-18T16:24:21;50.42;;;19.77;;
66012;SDS011;52783;50.502;8.190;2022-12-18T16:26:48;42.30;;;17.52;;
66012;SDS011;52783;50.502;8.190;2022-12-18T16:29:14;44.35;;;18.83;;
66012;SDS011;52783;50.502;8.190;2022-12-18T16:31:40;34.00;;;15.27;;
66012;SDS011;52783;50.502;8.190;2022-12-18T16:34:09;19.45;;;8.68;;
66012;SDS011;52783;50.502;8.190;2022-12-18T16:36:35;49.05;;;21.58;;
66012;SDS011;52783;50.502;8.190;2022-12-18T16:39:00;46.90;;;19.95;;
66012;SDS011;52783;50.502;8.190;2022-12-18T16:41:26;27.75;;;13.57;;
66012;SDS011;52783;50.502;8.190;2022-12-18T16:43:58;25.25;;;12.77;;
66012;SDS011;52783;50.502;8.190;2022-12-18T16:46:24;24.52;;;11.52;;
66012;SDS011;52783;50.502;8.190;2022-12-18T16:48:50;60.30;;;20.25;;
66012;SDS011;52783;50.502;8.190;2022-12-18T16:51:16;41.08;;;19.23;;